createdAt,value
2017-11-26T00:00:21.654Z,2.70
2017-11-26T00:02:49.266Z,3.00
2017-11-26T00:05:17.179Z,2.80
2017-11-26T00:07:44.895Z,2.70
2017-11-26T00:10:12.584Z,2.60
2017-11-26T00:12:40.296Z,2.90
2017-11-26T00:15:08.040Z,2.90
2017-11-26T00:17:35.666Z,3.00
2017-11-26T00:20:03.519Z,2.70
2017-11-26T00:22:31.301Z,3.00
2017-11-26T00:25:01.984Z,3.00
2017-11-26T00:27:29.813Z,2.80
2017-11-26T00:29:57.476Z,2.80
2017-11-26T00:32:26.648Z,2.80
2017-11-26T00:34:54.631Z,2.70
2017-11-26T00:37:22.237Z,2.70
2017-11-26T00:39:49.850Z,2.70
2017-11-26T00:42:17.991Z,3.00
2017-11-26T00:44:45.692Z,2.70
2017-11-26T00:47:13.467Z,2.90
2017-11-26T00:49:41.911Z,2.70
2017-11-26T00:52:09.523Z,2.80
2017-11-26T00:54:37.137Z,2.90
2017-11-26T00:57:04.786Z,3.00
2017-11-26T00:59:32.431Z,2.70
2017-11-26T01:02:00.336Z,2.90
2017-11-26T01:04:28.009Z,3.00
2017-11-26T01:06:57.173Z,3.00
2017-11-26T01:09:24.787Z,2.90
2017-11-26T01:11:52.399Z,3.00
2017-11-26T01:14:20.074Z,3.00
2017-11-26T01:16:47.731Z,2.70
2017-11-26T01:19:15.342Z,3.00
2017-11-26T01:21:43.321Z,3.00
2017-11-26T01:24:10.974Z,2.70
2017-11-26T01:26:38.633Z,3.00
2017-11-26T01:29:06.244Z,2.70
2017-11-26T01:31:33.902Z,3.00
2017-11-26T01:34:01.577Z,2.70
2017-11-26T01:36:30.249Z,2.70
2017-11-26T01:38:57.906Z,2.70
2017-11-26T01:41:25.537Z,2.70
2017-11-26T01:43:53.193Z,2.50
2017-11-26T01:46:20.850Z,2.60
2017-11-26T01:48:48.497Z,2.90
2017-11-26T01:51:16.119Z,2.70
2017-11-26T01:53:43.789Z,2.70
2017-11-26T01:56:11.692Z,2.40
2017-11-26T01:58:39.525Z,2.40
2017-11-26T02:01:07.950Z,2.40
2017-11-26T02:03:35.666Z,2.90
2017-11-26T02:06:04.399Z,2.40
2017-11-26T02:08:32.017Z,2.70
2017-11-26T02:10:59.700Z,2.40
2017-11-26T02:13:27.319Z,2.70
2017-11-26T02:15:54.970Z,2.40
2017-11-26T02:18:22.818Z,2.70
2017-11-26T02:20:50.530Z,2.40
2017-11-26T02:23:18.189Z,3.00
2017-11-26T02:25:45.838Z,2.70
2017-11-26T02:28:14.362Z,2.90
2017-11-26T02:30:42.030Z,2.80
2017-11-26T02:33:21.376Z,2.80
2017-11-26T02:35:57.727Z,2.80
2017-11-26T02:38:25.386Z,2.80
2017-11-26T02:40:53.788Z,2.80
2017-11-26T02:43:21.484Z,2.70
2017-11-26T02:45:49.216Z,2.60
2017-11-26T02:48:17.651Z,2.90
2017-11-26T02:50:45.560Z,2.80
2017-11-26T02:53:13.263Z,2.80
2017-11-26T02:55:40.994Z,2.80
2017-11-26T02:58:08.655Z,2.90
2017-11-26T03:00:37.039Z,3.00
2017-11-26T03:03:04.703Z,2.80
2017-11-26T03:05:33.083Z,3.00
2017-11-26T03:08:01.727Z,3.00
2017-11-26T03:10:29.352Z,2.80
2017-11-26T03:12:57.066Z,2.20
2017-11-26T03:15:24.729Z,2.90
2017-11-26T03:17:52.390Z,2.90
2017-11-26T03:20:21.831Z,2.70
2017-11-26T03:22:49.543Z,3.00
2017-11-26T03:25:17.298Z,2.80
2017-11-26T03:27:44.947Z,2.70
2017-11-26T03:30:12.915Z,3.00
2017-11-26T03:32:40.586Z,3.00
2017-11-26T03:35:08.278Z,3.00
2017-11-26T03:37:35.951Z,2.80
2017-11-26T03:40:03.598Z,2.80
2017-11-26T03:42:32.129Z,2.90
2017-11-26T03:44:59.777Z,2.80
2017-11-26T03:47:27.414Z,2.80
2017-11-26T03:49:55.091Z,2.70
2017-11-26T03:52:22.707Z,3.00
2017-11-26T03:54:50.355Z,2.70
2017-11-26T03:57:18.045Z,2.60
2017-11-26T03:59:45.671Z,2.90
2017-11-26T04:02:13.374Z,2.90
2017-11-26T04:04:41.008Z,3.00
2017-11-26T04:07:08.753Z,2.50
2017-11-26T04:09:37.155Z,2.70
2017-11-26T04:12:07.067Z,2.50
2017-11-26T04:14:34.687Z,2.60
2017-11-26T04:17:02.403Z,2.70
2017-11-26T04:19:30.031Z,2.70
2017-11-26T04:21:57.692Z,2.40
2017-11-26T04:24:25.359Z,2.70
2017-11-26T04:26:53.012Z,2.40
2017-11-26T04:29:21.037Z,2.30
2017-11-26T04:31:48.712Z,2.60
2017-11-26T04:34:16.360Z,2.70
2017-11-26T04:36:44.043Z,2.30
2017-11-26T04:39:11.652Z,2.60
2017-11-26T04:41:40.070Z,2.40
2017-11-26T04:44:07.716Z,2.70
2017-11-26T04:46:35.392Z,2.60
2017-11-26T04:49:03.051Z,2.90
2017-11-26T04:51:30.724Z,2.60
2017-11-26T04:53:58.334Z,2.70
2017-11-26T04:56:26.759Z,2.70
2017-11-26T04:58:54.747Z,2.50
2017-11-26T05:01:22.814Z,2.50
2017-11-26T05:03:50.478Z,2.90
2017-11-26T05:06:18.139Z,2.90
2017-11-26T05:08:45.758Z,2.90
2017-11-26T05:11:13.438Z,2.60
2017-11-26T05:13:41.076Z,2.70
2017-11-26T05:16:08.734Z,3.00
2017-11-26T05:18:36.471Z,3.00
2017-11-26T05:21:04.167Z,3.00
2017-11-26T05:23:32.063Z,2.70
2017-11-26T05:25:59.692Z,3.00
2017-11-26T05:28:27.506Z,2.70
2017-11-26T05:30:55.134Z,3.00
2017-11-26T05:33:22.806Z,2.60
2017-11-26T05:35:50.421Z,3.00
2017-11-26T05:38:18.099Z,3.00
2017-11-26T05:40:45.741Z,3.00
2017-11-26T05:43:13.416Z,2.80
2017-11-26T05:45:41.074Z,3.00
2017-11-26T05:48:08.721Z,2.90
2017-11-26T05:50:36.434Z,3.30
2017-11-26T05:53:04.122Z,3.20
2017-11-26T05:55:31.799Z,3.20
2017-11-26T05:57:59.419Z,3.20
2017-11-26T06:00:27.095Z,3.20
2017-11-26T06:02:55.534Z,3.30
2017-11-26T06:05:23.159Z,3.10
2017-11-26T06:07:50.887Z,3.30
2017-11-26T06:10:19.005Z,3.20
2017-11-26T06:12:46.622Z,3.30
2017-11-26T06:15:14.282Z,3.20
2017-11-26T06:17:42.932Z,3.10
2017-11-26T06:20:10.640Z,3.30
2017-11-26T06:22:39.023Z,3.00
2017-11-26T06:25:07.699Z,3.20
2017-11-26T06:27:36.839Z,3.30
2017-11-26T06:30:04.554Z,3.20
2017-11-26T06:32:32.251Z,3.30
2017-11-26T06:34:59.896Z,3.20
2017-11-26T06:37:27.567Z,3.30
2017-11-26T06:39:55.254Z,3.10
2017-11-26T06:42:22.930Z,3.50
2017-11-26T06:44:50.651Z,3.40
2017-11-26T06:47:18.267Z,3.50
2017-11-26T06:49:46.712Z,3.50
2017-11-26T06:52:16.554Z,3.30
2017-11-26T06:54:44.507Z,3.30
2017-11-26T06:57:14.742Z,3.30
2017-11-26T06:59:43.102Z,3.40
2017-11-26T07:02:11.179Z,3.70
2017-11-26T07:04:39.336Z,3.60
2017-11-26T07:07:07.318Z,3.70
2017-11-26T07:09:35.086Z,3.60
2017-11-26T07:12:02.785Z,3.40
2017-11-26T07:14:30.611Z,3.50
2017-11-26T07:16:58.310Z,3.50
2017-11-26T07:19:26.135Z,3.50
2017-11-26T07:21:53.750Z,3.50
2017-11-26T07:24:21.431Z,3.60
2017-11-26T07:26:49.296Z,3.40
2017-11-26T07:29:16.915Z,3.40
2017-11-26T07:31:45.646Z,3.40
2017-11-26T07:34:13.408Z,3.70
2017-11-26T07:36:41.032Z,3.60
2017-11-26T07:39:08.908Z,3.60
2017-11-26T07:41:36.788Z,3.80
2017-11-26T07:46:23.901Z,3.70
2017-11-26T07:48:51.562Z,3.60
2017-11-26T07:51:19.259Z,3.60
2017-11-26T07:53:47.049Z,3.60
2017-11-26T07:56:41.109Z,3.90
2017-11-26T07:59:26.590Z,3.50
2017-11-26T08:01:54.665Z,3.60
2017-11-26T08:04:22.505Z,3.80
2017-11-26T08:06:50.801Z,4.00
2017-11-26T08:09:18.415Z,4.00
2017-11-26T08:11:46.320Z,3.70
2017-11-26T08:14:14.755Z,3.80
2017-11-26T08:16:42.411Z,4.00
2017-11-26T08:19:10.074Z,3.70
2017-11-26T08:21:37.981Z,3.80
2017-11-26T08:24:05.649Z,3.70
2017-11-26T08:26:33.263Z,3.80
2017-11-26T08:29:01.644Z,3.60
2017-11-26T08:31:29.756Z,3.90
2017-11-26T08:33:57.488Z,3.80
2017-11-26T08:36:25.239Z,3.70
2017-11-26T08:38:52.899Z,3.80
2017-11-26T08:41:20.776Z,4.10
2017-11-26T08:43:48.420Z,3.80
2017-11-26T08:46:16.526Z,4.10
2017-11-26T08:48:44.351Z,3.90
2017-11-26T08:51:12.071Z,4.10
2017-11-26T08:53:40.352Z,4.10
2017-11-26T08:56:08.055Z,4.20
2017-11-26T08:58:35.753Z,4.20
2017-11-26T09:01:03.446Z,4.20
2017-11-26T09:03:31.939Z,4.10
2017-11-26T09:05:59.620Z,4.10
2017-11-26T09:08:32.724Z,4.20
2017-11-26T09:11:00.810Z,4.20
2017-11-26T09:13:29.403Z,4.30
2017-11-26T09:15:57.370Z,4.20
2017-11-26T09:18:25.554Z,4.40
2017-11-26T09:20:53.981Z,4.20
2017-11-26T09:23:22.527Z,4.00
2017-11-26T09:25:51.333Z,4.10
2017-11-26T09:28:19.006Z,3.90
2017-11-26T09:30:46.623Z,4.20
2017-11-26T09:33:14.492Z,4.20
2017-11-26T09:35:43.085Z,4.30
2017-11-26T09:38:10.927Z,4.10
2017-11-26T09:40:39.663Z,4.20
2017-11-26T09:43:07.698Z,4.20
2017-11-26T09:45:35.337Z,4.20
2017-11-26T09:48:03.800Z,4.20
2017-11-26T09:50:31.544Z,4.20
2017-11-26T09:52:59.458Z,4.30
2017-11-26T09:55:29.760Z,4.20
2017-11-26T09:57:57.720Z,4.20
2017-11-26T10:00:27.242Z,4.20
2017-11-26T10:02:54.858Z,4.50
2017-11-26T10:05:22.527Z,4.40
2017-11-26T10:07:50.184Z,4.30
2017-11-26T10:10:18.031Z,4.10
2017-11-26T10:12:45.833Z,4.40
2017-11-26T10:15:13.495Z,4.50
2017-11-26T10:17:41.193Z,4.60
2017-11-26T10:20:08.811Z,4.30
2017-11-26T10:22:36.591Z,4.40
2017-11-26T10:25:07.309Z,4.50
2017-11-26T10:27:34.994Z,4.60
2017-11-26T10:30:02.623Z,4.40
2017-11-26T10:32:30.280Z,4.50
2017-11-26T10:34:58.179Z,4.60
2017-11-26T10:37:26.768Z,4.40
2017-11-26T10:39:55.406Z,4.50
2017-11-26T10:42:23.031Z,4.60
2017-11-26T10:44:50.747Z,4.70
2017-11-26T10:47:18.518Z,4.60
2017-11-26T10:49:46.377Z,4.40
2017-11-26T10:52:14.032Z,4.50
2017-11-26T10:54:41.974Z,4.60
2017-11-26T10:57:09.645Z,4.60
2017-11-26T10:59:37.826Z,4.40
2017-11-26T11:02:05.535Z,4.50
2017-11-26T11:04:34.285Z,4.50
2017-11-26T11:07:02.187Z,4.50
2017-11-26T11:09:30.047Z,4.60
2017-11-26T11:11:58.490Z,4.70
2017-11-26T11:14:26.252Z,4.90
2017-11-26T11:16:54.014Z,4.80
2017-11-26T11:19:21.691Z,4.70
2017-11-26T11:21:49.403Z,4.80
2017-11-26T11:24:18.597Z,4.60
2017-11-26T11:26:46.327Z,5.00
2017-11-26T11:29:14.021Z,4.50
2017-11-26T11:31:41.747Z,4.90
2017-11-26T11:34:09.439Z,4.90
2017-11-26T11:36:37.594Z,5.00
2017-11-26T11:39:06.246Z,4.80
2017-11-26T11:41:33.862Z,4.90
2017-11-26T11:44:02.391Z,5.10
2017-11-26T11:46:30.071Z,4.80
2017-11-26T11:48:58.002Z,4.70
2017-11-26T11:51:25.700Z,4.90
2017-11-26T11:53:53.363Z,5.00
2017-11-26T11:56:21.084Z,4.80
2017-11-26T11:58:48.750Z,4.90
2017-11-26T12:01:16.406Z,5.00
2017-11-26T12:03:44.579Z,5.20
2017-11-26T12:06:12.260Z,5.00
2017-11-26T12:08:39.978Z,5.20
2017-11-26T12:11:07.760Z,5.00
2017-11-26T12:13:35.459Z,4.80
2017-11-26T12:16:03.168Z,4.90
2017-11-26T12:18:30.896Z,5.00
2017-11-26T12:20:59.361Z,5.30
2017-11-26T12:23:27.212Z,5.10
2017-11-26T12:25:54.872Z,5.00
2017-11-26T12:28:22.589Z,5.30
2017-11-26T12:30:50.283Z,5.10
2017-11-26T12:33:17.987Z,4.90
2017-11-26T12:35:46.431Z,4.80
2017-11-26T12:38:14.178Z,5.20
2017-11-26T12:40:41.893Z,5.00
2017-11-26T12:43:10.625Z,5.20
2017-11-26T12:45:38.289Z,5.20
2017-11-26T12:48:05.952Z,5.30
2017-11-26T12:50:33.686Z,5.20
2017-11-26T12:53:01.355Z,5.30
2017-11-26T12:55:29.003Z,5.20
2017-11-26T12:57:56.743Z,5.30
2017-11-26T13:00:24.882Z,5.10
2017-11-26T13:02:52.567Z,5.30
2017-11-26T13:05:20.493Z,5.30
2017-11-26T13:07:48.478Z,5.20
2017-11-26T13:10:16.170Z,5.20
2017-11-26T13:12:43.881Z,5.30
2017-11-26T13:15:11.767Z,5.40
2017-11-26T13:17:39.551Z,5.40
2017-11-26T13:20:07.377Z,5.40
2017-11-26T13:22:35.140Z,5.50
2017-11-26T13:25:02.807Z,5.40
2017-11-26T13:27:30.666Z,5.10
2017-11-26T13:29:58.386Z,5.20
2017-11-26T13:32:26.963Z,5.10
2017-11-26T13:34:54.626Z,5.00
2017-11-26T13:37:22.296Z,5.10
2017-11-26T13:39:50.003Z,5.20
2017-11-26T13:42:17.750Z,5.40
2017-11-26T13:44:45.420Z,5.20
2017-11-26T13:47:13.641Z,5.40
2017-11-26T13:49:43.416Z,5.10
2017-11-26T13:52:11.312Z,5.00
2017-11-26T13:54:39.014Z,5.10
2017-11-26T13:57:06.676Z,5.10
2017-11-26T13:59:34.413Z,5.10
2017-11-26T14:02:02.113Z,5.20
2017-11-26T14:04:29.890Z,4.80
2017-11-26T14:06:57.599Z,5.10
2017-11-26T14:09:25.246Z,5.20
2017-11-26T14:11:53.003Z,5.30
2017-11-26T14:14:20.678Z,5.20
2017-11-26T14:16:48.346Z,5.40
2017-11-26T14:19:16.035Z,5.10
2017-11-26T14:21:43.745Z,5.20
2017-11-26T14:24:11.578Z,5.30
2017-11-26T14:26:39.343Z,5.10
2017-11-26T14:29:07.009Z,5.10
2017-11-26T14:31:34.713Z,5.20
2017-11-26T14:34:02.411Z,5.40
2017-11-26T14:36:30.303Z,5.10
2017-11-26T14:38:57.996Z,5.10
2017-11-26T14:41:26.437Z,5.10
2017-11-26T14:43:54.300Z,4.90
2017-11-26T14:46:22.024Z,5.40
2017-11-26T14:48:49.822Z,5.10
2017-11-26T14:51:17.493Z,5.20
2017-11-26T14:53:45.393Z,5.10
2017-11-26T14:56:13.877Z,5.40
2017-11-26T14:58:42.135Z,5.20
2017-11-26T15:01:10.579Z,5.10
2017-11-26T15:03:38.551Z,4.90
2017-11-26T15:06:06.271Z,5.40
2017-11-26T15:08:34.159Z,5.20
2017-11-26T15:11:01.862Z,5.30
2017-11-26T15:13:31.074Z,5.10
2017-11-26T15:15:58.748Z,5.10
2017-11-26T15:18:26.448Z,5.10
2017-11-26T15:20:55.007Z,5.00
2017-11-26T15:23:22.922Z,5.50
2017-11-26T15:25:50.631Z,5.30
2017-11-26T15:28:18.521Z,5.10
2017-11-26T15:30:46.210Z,5.20
2017-11-26T15:33:13.919Z,5.00
2017-11-26T15:35:41.792Z,5.00
2017-11-26T15:38:09.806Z,5.00
2017-11-26T15:40:37.504Z,5.10
2017-11-26T15:43:07.467Z,5.20
2017-11-26T15:45:35.451Z,5.30
2017-11-26T15:48:03.249Z,5.10
2017-11-26T15:50:34.968Z,5.20
2017-11-26T15:53:03.920Z,5.30
2017-11-26T15:55:31.669Z,5.00
2017-11-26T15:58:02.418Z,5.10
2017-11-26T16:00:30.239Z,5.20
2017-11-26T16:02:57.944Z,5.00
2017-11-26T16:05:26.528Z,5.00
2017-11-26T16:07:54.673Z,5.00
2017-11-26T16:10:22.383Z,5.10
2017-11-26T16:12:50.094Z,5.10
2017-11-26T16:15:17.996Z,5.10
2017-11-26T16:17:45.664Z,5.20
2017-11-26T16:20:13.430Z,5.00
2017-11-26T16:22:41.430Z,5.00
2017-11-26T16:25:09.775Z,5.10
2017-11-26T16:27:37.657Z,5.20
2017-11-26T16:30:05.371Z,5.40
2017-11-26T16:32:35.540Z,5.10
2017-11-26T16:35:03.188Z,5.10
2017-11-26T16:37:33.440Z,5.20
2017-11-26T16:40:04.276Z,5.60
2017-11-26T16:42:32.043Z,5.20
2017-11-26T16:44:59.740Z,5.60
2017-11-26T16:47:27.508Z,5.20
2017-11-26T16:49:55.992Z,5.60
2017-11-26T16:52:23.757Z,5.20
2017-11-26T16:54:51.811Z,5.60
2017-11-26T16:57:19.502Z,5.40
2017-11-26T16:59:47.187Z,5.20
2017-11-26T17:02:14.883Z,5.60
2017-11-26T17:04:42.822Z,5.30
2017-11-26T17:07:11.266Z,5.10
2017-11-26T17:09:38.995Z,5.50
2017-11-26T17:12:06.736Z,5.70
2017-11-26T17:14:34.459Z,5.60
2017-11-26T17:17:02.702Z,5.40
2017-11-26T17:19:30.411Z,5.20
2017-11-26T17:21:58.361Z,5.60
2017-11-26T17:24:26.065Z,5.40
2017-11-26T17:26:53.723Z,5.40
2017-11-26T17:29:22.879Z,5.20
2017-11-26T17:31:50.547Z,5.60
2017-11-26T17:34:20.030Z,5.50
2017-11-26T17:36:48.070Z,5.60
2017-11-26T17:39:15.719Z,5.40
2017-11-26T17:41:43.351Z,5.40
2017-11-26T17:44:11.295Z,5.40
2017-11-26T17:46:39.669Z,5.40
2017-11-26T17:49:07.323Z,5.40
2017-11-26T17:51:34.989Z,5.40
2017-11-26T17:54:02.771Z,5.10
2017-11-26T17:56:30.640Z,5.70
2017-11-26T17:58:58.299Z,5.60
2017-11-26T18:01:26.776Z,5.40
2017-11-26T18:03:54.436Z,5.50
2017-11-26T18:06:22.455Z,5.60
2017-11-26T18:08:50.332Z,5.20
2017-11-26T18:11:18.295Z,5.60
2017-11-26T18:13:46.293Z,5.20
2017-11-26T18:16:13.980Z,5.60
2017-11-26T18:18:41.619Z,5.40
2017-11-26T18:21:09.283Z,5.20
2017-11-26T18:23:36.924Z,5.60
2017-11-26T18:26:04.599Z,5.40
2017-11-26T18:28:32.212Z,5.50
2017-11-26T18:30:59.814Z,5.60
2017-11-26T18:33:29.030Z,5.50
2017-11-26T18:35:58.849Z,5.60
2017-11-26T18:38:26.518Z,5.40
2017-11-26T18:40:54.931Z,5.30
2017-11-26T18:43:22.588Z,5.40
2017-11-26T18:45:50.252Z,5.40
2017-11-26T18:48:18.502Z,5.40
2017-11-26T18:50:47.160Z,5.40
2017-11-26T18:53:15.648Z,5.40
2017-11-26T18:55:44.236Z,5.70
2017-11-26T18:58:14.775Z,5.60
2017-11-26T19:00:42.449Z,5.30
2017-11-26T19:03:10.305Z,5.80
2017-11-26T19:05:38.014Z,5.70
2017-11-26T19:08:05.670Z,5.60
2017-11-26T19:10:33.334Z,5.40
2017-11-26T19:13:01.945Z,5.40
2017-11-26T19:15:30.490Z,5.60
2017-11-26T19:17:59.031Z,5.50
2017-11-26T19:20:27.008Z,5.50
2017-11-26T19:22:55.423Z,5.60
2017-11-26T19:25:24.758Z,5.30
2017-11-26T19:27:53.379Z,5.70
2017-11-26T19:30:23.590Z,5.50
2017-11-26T19:32:51.275Z,5.60
2017-11-26T19:35:18.943Z,5.40
2017-11-26T19:37:46.567Z,5.40
2017-11-26T19:40:14.380Z,5.40
2017-11-26T19:42:42.263Z,5.40
2017-11-26T19:45:11.139Z,5.40
2017-11-26T19:47:38.892Z,5.40
2017-11-26T19:50:06.604Z,5.30
2017-11-26T19:52:34.418Z,5.40
2017-11-26T19:55:02.062Z,5.40
2017-11-26T19:57:30.915Z,5.40
2017-11-26T19:59:58.558Z,5.40
2017-11-26T20:02:27.001Z,5.40
2017-11-26T20:04:54.847Z,5.40
2017-11-26T20:07:22.487Z,5.40
2017-11-26T20:09:50.384Z,5.40
2017-11-26T20:12:18.024Z,5.40
2017-11-26T20:14:45.832Z,5.40
2017-11-26T20:17:13.479Z,5.30
2017-11-26T20:19:41.158Z,5.10
2017-11-26T20:22:09.730Z,5.10
2017-11-26T20:24:39.018Z,5.50
2017-11-26T20:27:07.720Z,5.40
2017-11-26T20:29:35.442Z,5.20
2017-11-26T20:32:03.248Z,5.40
2017-11-26T20:34:30.919Z,5.10
2017-11-26T20:36:58.539Z,5.20
2017-11-26T20:39:26.194Z,5.30
2017-11-26T20:41:53.825Z,5.10
2017-11-26T20:44:21.495Z,5.20
2017-11-26T20:46:49.170Z,5.40
2017-11-26T20:49:16.775Z,5.00
2017-11-26T20:51:44.394Z,5.00
2017-11-26T20:54:18.298Z,5.00
2017-11-26T20:56:54.480Z,5.00
2017-11-26T20:59:30.812Z,5.00
2017-11-26T21:02:03.995Z,4.90
2017-11-26T21:04:32.595Z,5.00
2017-11-26T21:07:00.267Z,5.20
2017-11-26T21:09:27.937Z,5.30
2017-11-26T21:11:55.628Z,5.00
2017-11-26T21:14:23.461Z,4.70
2017-11-26T21:16:51.144Z,5.20
2017-11-26T21:19:18.822Z,4.70
2017-11-26T21:21:47.239Z,5.20
2017-11-26T21:24:15.194Z,4.70
2017-11-26T21:26:42.979Z,5.10
2017-11-26T21:29:10.662Z,5.00
2017-11-26T21:31:38.335Z,4.70
2017-11-26T21:34:05.962Z,5.00
2017-11-26T21:36:33.602Z,4.80
2017-11-26T21:39:01.487Z,4.70
2017-11-26T21:41:29.251Z,4.90
2017-11-26T21:43:57.013Z,4.70
2017-11-26T21:46:24.675Z,5.00
2017-11-26T21:48:52.331Z,4.70
2017-11-26T21:51:19.951Z,5.00
2017-11-26T21:53:48.367Z,4.90
2017-11-26T21:56:16.032Z,4.70
2017-11-26T21:58:43.653Z,5.00
2017-11-26T22:01:11.306Z,4.70
2017-11-26T22:03:39.731Z,4.60
2017-11-26T22:06:07.406Z,4.80
2017-11-26T22:08:35.014Z,4.60
2017-11-26T22:11:02.652Z,4.70
2017-11-26T22:13:31.308Z,4.60
2017-11-26T22:15:58.937Z,4.90
2017-11-26T22:18:26.613Z,4.70
2017-11-26T22:20:54.286Z,4.90
2017-11-26T22:23:21.898Z,4.60
2017-11-26T22:25:49.815Z,4.70
2017-11-26T22:28:17.459Z,4.60
2017-11-26T22:30:45.068Z,4.70
2017-11-26T22:33:13.504Z,4.70
2017-11-26T22:35:41.110Z,4.90
2017-11-26T22:38:08.783Z,4.70
2017-11-26T22:40:36.880Z,5.00
2017-11-26T22:43:04.529Z,4.80
2017-11-26T22:45:32.136Z,4.80
2017-11-26T22:47:59.795Z,4.80
2017-11-26T22:50:27.455Z,4.70
2017-11-26T22:52:55.107Z,4.70
2017-11-26T22:55:24.256Z,4.90
2017-11-26T22:57:51.915Z,5.00
2017-11-26T23:00:19.604Z,4.70
2017-11-26T23:02:47.224Z,5.00
2017-11-26T23:05:15.671Z,4.70
2017-11-26T23:07:44.236Z,4.70
2017-11-26T23:10:11.902Z,4.90
2017-11-26T23:12:39.518Z,4.70
2017-11-26T23:15:07.127Z,4.90
2017-11-26T23:17:34.986Z,4.70
2017-11-26T23:20:03.597Z,4.60
2017-11-26T23:22:31.230Z,4.70
2017-11-26T23:24:58.883Z,5.00
2017-11-26T23:27:26.494Z,4.50
2017-11-26T23:29:54.197Z,4.90
2017-11-26T23:32:21.805Z,4.40
2017-11-26T23:34:49.435Z,4.50
2017-11-26T23:37:17.392Z,4.70
2017-11-26T23:39:45.013Z,4.70
2017-11-26T23:42:12.681Z,4.70
2017-11-26T23:44:40.996Z,4.70
2017-11-26T23:47:08.608Z,4.70
2017-11-26T23:49:36.296Z,4.70
2017-11-26T23:52:03.911Z,4.30
2017-11-26T23:54:31.578Z,4.40
2017-11-26T23:56:59.244Z,4.40
2017-11-26T23:59:26.847Z,4.50
